Terminal Aerodrome Forecast
Issued by NWS Sterling, VA

Home | Current Version | Previous Version | Text Only | Print | Product List | Glossary On
Versions: 1 2 3 4 5 6 7 8 9 10 11 12 13 14 15
000
FTUS41 KLWX 040538
TAFCHO
TAF
KCHO 040538Z 0406/0506 19014KT P6SM BKN100
     FM040900 20012KT 3SM -SHRA BR OVC025
     FM041600 VRB04KT 3SM -RA BR OVC008
     FM042300 02005KT 2SM -RA BR OVC008=

USA.gov is the U.S. government's official web portal to all federal, state and local government web resources and services.